createdAt,value
2023-05-10T00:02:54.546Z,4.50
2023-05-10T00:07:56.298Z,3.50
2023-05-10T00:12:58.139Z,3.20
2023-05-10T00:18:00.022Z,2.97
2023-05-10T00:23:01.955Z,2.70
2023-05-10T00:28:03.850Z,2.15
2023-05-10T00:33:05.689Z,1.90
2023-05-10T00:38:07.754Z,1.70
2023-05-10T00:43:09.457Z,1.80
2023-05-10T00:48:11.280Z,1.70
2023-05-10T00:53:13.019Z,2.00
2023-05-10T00:58:15.303Z,1.88
2023-05-10T01:03:20.133Z,1.95
2023-05-10T01:08:23.120Z,1.90
2023-05-10T01:13:38.910Z,2.10
2023-05-10T01:18:42.792Z,1.90
2023-05-10T01:24:22.101Z,1.85
2023-05-10T01:29:43.280Z,1.95
2023-05-10T01:35:01.755Z,2.10
2023-05-10T01:40:31.237Z,2.00
2023-05-10T01:45:38.750Z,2.50
2023-05-10T01:50:44.132Z,1.92
2023-05-10T01:55:49.916Z,2.40
2023-05-10T02:00:53.299Z,2.13
2023-05-10T02:05:57.432Z,2.45
2023-05-10T02:11:00.163Z,2.10
2023-05-10T02:16:05.604Z,2.33
2023-05-10T02:21:09.362Z,2.28
2023-05-10T02:26:15.221Z,1.75
2023-05-10T02:31:18.883Z,2.17
2023-05-10T02:36:23.708Z,2.03
2023-05-10T02:41:27.353Z,2.22
2023-05-10T02:46:29.717Z,1.80
2023-05-10T02:51:35.954Z,2.13
2023-05-10T02:56:43.944Z,2.00
2023-05-10T03:01:46.489Z,2.03
2023-05-10T03:06:48.795Z,1.83
2023-05-10T03:12:15.506Z,1.50
2023-05-10T03:17:36.185Z,1.70
2023-05-10T03:22:41.880Z,1.67
2023-05-10T03:27:45.055Z,1.33
2023-05-10T03:32:46.902Z,1.70
2023-05-10T03:37:51.371Z,1.50
2023-05-10T03:42:53.250Z,1.77
2023-05-10T03:47:55.016Z,1.60
2023-05-10T03:52:58.405Z,1.90
2023-05-10T03:58:00.152Z,2.08
2023-05-10T04:03:02.274Z,2.10
2023-05-10T04:08:05.117Z,2.10
2023-05-10T04:13:07.264Z,2.20
2023-05-10T04:18:09.050Z,2.20
2023-05-10T04:23:10.992Z,2.03
2023-05-10T04:28:12.803Z,1.75
2023-05-10T04:33:15.330Z,1.90
2023-05-10T04:38:17.028Z,1.50
2023-05-10T04:43:19.325Z,1.35
2023-05-10T04:48:21.010Z,1.30
2023-05-10T04:53:22.902Z,1.20
2023-05-10T04:58:24.555Z,1.20
2023-05-10T05:03:26.365Z,1.30
2023-05-10T05:08:28.219Z,1.07
2023-05-10T05:13:30.356Z,1.10
2023-05-10T05:18:32.203Z,0.95
2023-05-10T05:23:34.042Z,1.00
2023-05-10T05:28:38.203Z,1.50
2023-05-10T05:33:40.117Z,0.80
2023-05-10T05:38:41.859Z,0.93
2023-05-10T05:43:43.753Z,0.80
2023-05-10T05:48:45.593Z,0.80
2023-05-10T05:53:47.937Z,0.80
2023-05-10T05:58:50.580Z,0.82
2023-05-10T06:03:53.506Z,0.80
2023-05-10T06:08:55.900Z,0.80
2023-05-10T06:13:57.873Z,1.00
2023-05-10T06:19:00.275Z,1.20
2023-05-10T06:24:01.988Z,1.13
2023-05-10T06:29:03.647Z,1.42
2023-05-10T06:39:12.575Z,1.20
2023-05-10T06:44:14.311Z,1.30
2023-05-10T06:49:16.059Z,1.40
2023-05-10T06:54:17.716Z,1.35
2023-05-10T06:59:20.384Z,1.50
2023-05-10T07:09:25.306Z,1.30
2023-05-10T07:14:27.076Z,1.60
2023-05-10T07:19:30.376Z,1.70
2023-05-10T07:24:34.067Z,1.40
2023-05-10T07:29:36.860Z,1.70
2023-05-10T07:34:38.918Z,1.60
2023-05-10T07:39:40.621Z,1.65
2023-05-10T07:44:42.843Z,1.90
2023-05-10T07:49:44.856Z,2.03
2023-05-10T07:54:46.517Z,2.13
2023-05-10T07:59:48.496Z,1.80
2023-05-10T08:04:50.199Z,2.07
2023-05-10T08:09:52.111Z,1.73
2023-05-10T08:14:53.847Z,1.60
2023-05-10T08:19:55.620Z,1.80
2023-05-10T08:24:57.382Z,1.58
2023-05-10T08:29:59.100Z,1.75
2023-05-10T08:35:00.845Z,2.20
2023-05-10T08:40:02.790Z,2.20
2023-05-10T08:45:05.821Z,2.40
2023-05-10T08:50:08.141Z,2.08
2023-05-10T08:55:10.487Z,1.52
2023-05-10T09:00:13.047Z,1.63
2023-05-10T09:05:17.110Z,1.60
2023-05-10T09:10:20.548Z,1.70
2023-05-10T09:15:22.465Z,1.33
2023-05-10T09:20:25.326Z,1.50
2023-05-10T09:30:32.177Z,1.50
2023-05-10T09:35:34.609Z,1.52
2023-05-10T09:40:36.355Z,1.70
2023-05-10T09:45:39.128Z,1.50
2023-05-10T09:50:41.311Z,1.67
2023-05-10T09:55:47.975Z,1.47
2023-05-10T10:00:53.211Z,1.60
2023-05-10T10:05:56.935Z,1.50
2023-05-10T10:10:58.688Z,1.80
2023-05-10T10:16:00.691Z,1.60
2023-05-10T10:21:03.138Z,1.77
2023-05-10T10:26:05.769Z,1.80
2023-05-10T10:31:27.480Z,1.80
2023-05-10T10:36:29.477Z,1.40
2023-05-10T10:41:36.469Z,1.70
2023-05-10T10:47:09.179Z,1.20
2023-05-10T10:52:34.304Z,1.42
2023-05-10T10:57:48.260Z,1.60
2023-05-10T11:02:57.119Z,0.98
2023-05-10T11:08:00.867Z,0.82
2023-05-10T11:13:11.064Z,1.20
2023-05-10T11:18:21.110Z,1.10
2023-05-10T11:23:23.354Z,1.40
2023-05-10T11:28:25.319Z,1.27
2023-05-10T11:33:27.146Z,1.20
2023-05-10T11:38:28.832Z,1.30
2023-05-10T11:43:31.725Z,1.43
2023-05-10T11:48:34.233Z,0.95
2023-05-10T11:53:36.120Z,1.10
2023-05-10T11:58:39.190Z,0.80
2023-05-10T12:03:41.411Z,0.90
2023-05-10T12:08:53.525Z,1.00
2023-05-10T12:13:57.280Z,1.20
2023-05-10T12:19:00.852Z,1.20
2023-05-10T12:24:04.700Z,1.33
2023-05-10T12:29:20.015Z,1.10
2023-05-10T12:34:32.199Z,0.98
2023-05-10T12:39:45.867Z,1.10
2023-05-10T12:44:47.689Z,0.95
2023-05-10T12:49:49.377Z,1.15
2023-05-10T12:54:51.174Z,1.20
2023-05-10T12:59:52.836Z,1.30
2023-05-10T13:04:54.559Z,1.20
2023-05-10T13:09:56.373Z,1.20
2023-05-10T13:14:58.403Z,1.33
2023-05-10T13:20:00.135Z,1.20
2023-05-10T13:25:02.529Z,1.33
2023-05-10T13:30:04.980Z,1.25
2023-05-10T13:35:07.008Z,1.15
2023-05-10T13:40:09.225Z,0.82
2023-05-10T13:45:13.285Z,0.90
2023-05-10T13:50:15.434Z,0.90
2023-05-10T13:55:17.367Z,1.10
2023-05-10T14:00:19.536Z,1.40
2023-05-10T14:05:25.498Z,1.60
2023-05-10T14:10:28.173Z,1.20
2023-05-10T14:15:29.965Z,1.00
2023-05-10T14:20:33.085Z,0.90
2023-05-10T14:25:35.549Z,1.20
2023-05-10T14:30:37.513Z,1.30
2023-05-10T14:35:39.952Z,1.30
2023-05-10T14:45:44.327Z,1.40
2023-05-10T14:50:46.316Z,1.15
2023-05-10T14:55:48.190Z,1.20
2023-05-10T15:00:49.796Z,1.13
2023-05-10T15:05:52.994Z,1.35
2023-05-10T15:10:56.671Z,1.30
2023-05-10T15:15:58.328Z,1.40
2023-05-10T15:21:00.198Z,1.07
2023-05-10T15:26:02.189Z,1.20
2023-05-10T15:31:04.011Z,1.50
2023-05-10T15:36:05.844Z,1.85
2023-05-10T15:41:07.654Z,1.70
2023-05-10T15:46:09.555Z,1.50
2023-05-10T15:51:11.414Z,1.80
2023-05-10T15:56:13.236Z,1.80
2023-05-10T16:01:15.063Z,2.17
2023-05-10T16:06:17.350Z,1.80
2023-05-10T16:11:19.070Z,1.98
2023-05-10T16:16:20.917Z,1.90
2023-05-10T16:21:22.954Z,1.60
2023-05-10T16:26:24.743Z,1.57
2023-05-10T16:31:26.479Z,1.92
2023-05-10T16:36:29.511Z,2.00
2023-05-10T16:41:34.858Z,1.98
2023-05-10T16:46:36.822Z,2.10
2023-05-10T16:51:38.540Z,1.90
2023-05-10T16:56:40.845Z,2.45
2023-05-10T17:01:42.533Z,1.83
2023-05-10T17:06:44.696Z,2.00
2023-05-10T17:11:46.648Z,2.00
2023-05-10T17:16:48.432Z,1.97
2023-05-10T17:21:50.311Z,2.05
2023-05-10T17:26:52.033Z,2.43
2023-05-10T17:31:53.873Z,1.75
2023-05-10T17:36:55.560Z,2.30
2023-05-10T17:41:57.271Z,1.88
2023-05-10T17:46:59.203Z,1.90
2023-05-10T17:52:01.280Z,2.07
2023-05-10T17:57:03.728Z,1.50
2023-05-10T18:07:07.856Z,1.60
2023-05-10T18:12:09.705Z,2.08
2023-05-10T18:17:11.435Z,2.30
2023-05-10T18:22:13.355Z,2.60
2023-05-10T18:27:15.144Z,1.77
2023-05-10T18:32:17.415Z,2.40
2023-05-10T18:37:19.384Z,2.65
2023-05-10T18:42:21.125Z,2.40
2023-05-10T18:47:23.114Z,3.40
2023-05-10T18:52:25.011Z,3.70
2023-05-10T19:02:29.996Z,3.28
2023-05-10T19:07:32.053Z,3.25
2023-05-10T19:12:34.160Z,2.90
2023-05-10T19:17:36.738Z,3.00
2023-05-10T19:22:54.238Z,2.70
2023-05-10T19:28:01.369Z,2.90
2023-05-10T19:33:05.060Z,2.95
2023-05-10T19:38:07.046Z,2.60
2023-05-10T19:43:09.319Z,3.13
2023-05-10T19:48:11.151Z,2.87
2023-05-10T19:53:13.115Z,3.00
2023-05-10T19:58:14.863Z,2.37
2023-05-10T20:03:17.181Z,3.35
2023-05-10T20:08:18.985Z,3.60
2023-05-10T20:13:21.134Z,3.17
2023-05-10T20:18:23.508Z,3.43
2023-05-10T20:23:26.083Z,3.40
2023-05-10T20:28:28.929Z,3.42
2023-05-10T20:38:32.495Z,3.45
2023-05-10T20:43:34.323Z,3.22
2023-05-10T20:48:36.025Z,3.67
2023-05-10T20:53:37.757Z,4.20
2023-05-10T20:58:39.432Z,3.55
2023-05-10T21:03:41.153Z,2.95
2023-05-10T21:08:43.477Z,3.47
2023-05-10T21:13:45.619Z,3.70
2023-05-10T21:18:47.318Z,3.80
2023-05-10T21:23:49.173Z,3.63
2023-05-10T21:28:51.448Z,4.35
2023-05-10T21:33:53.099Z,4.15
2023-05-10T21:38:54.907Z,3.95
2023-05-10T21:43:57.261Z,4.40
2023-05-10T21:49:01.512Z,4.30
2023-05-10T21:54:03.208Z,4.47
2023-05-10T21:59:05.018Z,4.22
2023-05-10T22:04:06.701Z,4.53
2023-05-10T22:09:08.591Z,4.38
2023-05-10T22:14:10.305Z,4.85
2023-05-10T22:19:12.299Z,4.43
2023-05-10T22:24:14.304Z,3.83
2023-05-10T22:29:16.101Z,3.78
2023-05-10T22:34:18.745Z,3.50
2023-05-10T22:39:20.450Z,3.45
2023-05-10T22:44:22.300Z,3.40
2023-05-10T22:49:24.815Z,3.50
2023-05-10T22:54:26.397Z,3.13
2023-05-10T22:59:28.647Z,3.50
2023-05-10T23:04:30.686Z,3.10
2023-05-10T23:09:32.338Z,3.37
2023-05-10T23:14:34.035Z,3.28
2023-05-10T23:19:36.021Z,2.93
2023-05-10T23:24:39.106Z,2.70
2023-05-10T23:29:40.840Z,2.33
2023-05-10T23:34:42.497Z,3.00
2023-05-10T23:39:44.711Z,3.22
2023-05-10T23:44:46.850Z,2.83
2023-05-10T23:49:50.212Z,2.87
2023-05-10T23:54:52.510Z,3.17
2023-05-10T23:59:54.407Z,2.97
